createdAt,value
2022-12-03T00:00:39.632Z,21.70
2022-12-03T00:03:06.594Z,20.13
2022-12-03T00:05:33.648Z,19.95
2022-12-03T00:08:00.639Z,20.30
2022-12-03T00:10:27.569Z,21.52
2022-12-03T00:12:54.536Z,21.02
2022-12-03T00:15:21.549Z,21.02
2022-12-03T00:17:49.860Z,21.25
2022-12-03T00:20:20.777Z,20.73
2022-12-03T00:22:47.748Z,19.92
2022-12-03T00:25:14.921Z,20.55
2022-12-03T00:27:41.892Z,20.77
2022-12-03T00:30:11.197Z,22.08
2022-12-03T00:32:38.198Z,21.20
2022-12-03T00:35:07.308Z,19.98
2022-12-03T00:37:35.324Z,20.15
2022-12-03T00:40:03.095Z,20.83
2022-12-03T00:42:30.035Z,20.65
2022-12-03T00:44:57.052Z,20.55
2022-12-03T00:47:24.058Z,21.90
2022-12-03T00:49:51.727Z,20.50
2022-12-03T00:52:20.093Z,20.88
2022-12-03T00:54:49.085Z,21.08
2022-12-03T00:57:16.456Z,21.10
2022-12-03T00:59:43.373Z,21.08
2022-12-03T01:02:10.594Z,23.13
2022-12-03T01:04:37.747Z,23.45
2022-12-03T01:07:04.930Z,22.83
2022-12-03T01:09:33.328Z,22.15
2022-12-03T01:12:00.257Z,22.55
2022-12-03T01:14:27.235Z,22.83
2022-12-03T01:16:54.168Z,23.30
2022-12-03T01:19:21.173Z,23.52
2022-12-03T01:21:50.670Z,22.02
2022-12-03T01:24:19.109Z,22.30
2022-12-03T01:26:47.464Z,22.15
2022-12-03T01:29:14.901Z,22.02
2022-12-03T01:32:00.115Z,20.60
2022-12-03T01:34:27.081Z,22.15
2022-12-03T01:36:53.987Z,23.02
2022-12-03T01:39:21.057Z,22.08
2022-12-03T01:41:51.169Z,22.15
2022-12-03T01:44:22.485Z,22.10
2022-12-03T01:46:50.927Z,21.65
2022-12-03T01:49:20.756Z,20.90
2022-12-03T01:51:49.803Z,19.90
2022-12-03T01:54:18.657Z,20.33
2022-12-03T01:56:46.843Z,21.45
2022-12-03T01:59:17.174Z,22.50
2022-12-03T02:01:44.559Z,22.85
2022-12-03T02:04:16.659Z,21.83
2022-12-03T02:06:44.568Z,21.45
2022-12-03T02:09:12.672Z,21.48
2022-12-03T02:11:42.251Z,21.60
2022-12-03T02:14:13.988Z,21.77
2022-12-03T02:16:43.106Z,22.95
2022-12-03T02:19:20.112Z,20.27
2022-12-03T02:21:56.780Z,23.05
2022-12-03T02:24:29.381Z,21.80
2022-12-03T02:26:57.789Z,22.27
2022-12-03T02:29:25.233Z,21.20
2022-12-03T02:31:52.281Z,22.38
2022-12-03T02:34:37.393Z,23.15
2022-12-03T02:37:06.644Z,22.95
2022-12-03T02:39:35.263Z,22.40
2022-12-03T02:42:23.173Z,23.33
2022-12-03T02:44:50.344Z,22.48
2022-12-03T02:47:17.801Z,22.48
2022-12-03T02:49:45.199Z,21.27
2022-12-03T02:52:12.273Z,21.55
2022-12-03T02:54:39.309Z,20.73
2022-12-03T02:57:07.845Z,21.23
2022-12-03T02:59:34.985Z,22.55
2022-12-03T03:02:02.500Z,22.10
2022-12-03T03:04:30.009Z,22.08
2022-12-03T03:06:57.084Z,22.33
2022-12-03T03:09:24.342Z,20.60
2022-12-03T03:11:51.300Z,21.08
2022-12-03T03:14:19.637Z,22.67
2022-12-03T03:16:55.696Z,22.27
2022-12-03T03:19:24.458Z,21.00
2022-12-03T03:21:52.026Z,22.25
2022-12-03T03:24:19.450Z,22.20
2022-12-03T03:26:47.574Z,22.08
2022-12-03T03:29:14.725Z,22.27
2022-12-03T03:31:45.283Z,23.40
2022-12-03T03:34:12.828Z,22.00
2022-12-03T03:36:40.541Z,24.27
2022-12-03T03:39:07.700Z,22.52
2022-12-03T03:41:35.718Z,22.25
2022-12-03T03:44:05.106Z,21.58
2022-12-03T03:46:33.549Z,23.58
2022-12-03T03:49:02.719Z,21.70
2022-12-03T03:51:30.156Z,23.20
2022-12-03T03:53:57.375Z,21.25
2022-12-03T03:56:24.629Z,20.85
2022-12-03T03:58:51.664Z,21.40
2022-12-03T04:01:19.264Z,22.33
2022-12-03T04:03:46.431Z,21.77
2022-12-03T04:06:14.980Z,21.25
2022-12-03T04:08:41.976Z,21.88
2022-12-03T04:11:28.259Z,24.23
2022-12-03T04:13:55.185Z,24.67
2022-12-03T04:16:22.240Z,26.63
2022-12-03T04:18:49.336Z,26.23
2022-12-03T04:21:38.026Z,24.50
2022-12-03T04:24:06.912Z,22.92
2022-12-03T04:26:52.742Z,21.20
2022-12-03T04:29:20.545Z,23.75
2022-12-03T04:32:06.272Z,23.33
2022-12-03T04:37:20.914Z,22.40
2022-12-03T04:39:47.908Z,20.63
2022-12-03T04:42:14.865Z,21.38
2022-12-03T04:44:41.863Z,21.98
2022-12-03T04:47:11.458Z,22.15
2022-12-03T04:49:40.686Z,23.20
2022-12-03T04:52:08.716Z,30.55
2022-12-03T04:54:37.610Z,40.42
2022-12-03T04:57:05.381Z,23.77
2022-12-03T04:59:33.023Z,23.95
2022-12-03T05:02:00.103Z,24.88
2022-12-03T05:04:27.142Z,22.67
2022-12-03T05:07:12.011Z,21.52
2022-12-03T05:09:40.405Z,24.58
2022-12-03T05:12:07.583Z,20.75
2022-12-03T05:14:35.641Z,20.40
2022-12-03T05:17:02.649Z,22.73
2022-12-03T05:19:48.304Z,20.15
2022-12-03T05:22:15.294Z,20.52
2022-12-03T05:24:43.680Z,20.55
2022-12-03T05:27:10.721Z,19.50
2022-12-03T05:29:37.676Z,19.35
2022-12-03T05:32:05.096Z,18.35
2022-12-03T05:34:32.067Z,19.45
2022-12-03T05:36:59.061Z,21.80
2022-12-03T05:39:26.189Z,18.95
2022-12-03T05:42:13.024Z,28.60
2022-12-03T05:44:40.180Z,23.17
2022-12-03T05:47:07.162Z,21.20
2022-12-03T05:49:34.185Z,22.08
2022-12-03T05:52:01.139Z,21.75
2022-12-03T05:54:28.601Z,21.73
2022-12-03T05:56:57.002Z,21.35
2022-12-03T05:59:23.955Z,21.30
2022-12-03T06:01:50.972Z,21.70
2022-12-03T06:04:17.952Z,43.85
2022-12-03T06:06:45.184Z,24.10
2022-12-03T06:09:12.673Z,22.10
2022-12-03T06:11:40.641Z,21.38
2022-12-03T06:14:09.382Z,22.00
2022-12-03T06:16:36.466Z,22.67
2022-12-03T06:19:03.495Z,19.95
2022-12-03T06:21:30.457Z,21.83
2022-12-03T06:23:57.412Z,20.48
2022-12-03T06:26:24.370Z,19.67
2022-12-03T06:28:51.267Z,21.27
2022-12-03T06:31:19.677Z,21.67
2022-12-03T06:33:46.654Z,22.88
2022-12-03T06:36:13.577Z,22.80
2022-12-03T06:38:41.773Z,22.70
2022-12-03T06:41:08.711Z,21.42
2022-12-03T06:43:35.733Z,19.65
2022-12-03T06:46:02.704Z,20.63
2022-12-03T06:48:31.110Z,21.77
2022-12-03T06:50:58.161Z,21.00
2022-12-03T06:53:25.099Z,21.00
2022-12-03T06:55:52.013Z,21.15
2022-12-03T06:58:18.931Z,20.25
2022-12-03T07:00:46.001Z,20.50
2022-12-03T07:03:13.101Z,21.05
2022-12-03T07:05:41.489Z,21.70
2022-12-03T07:08:08.508Z,19.92
2022-12-03T07:10:35.460Z,20.85
2022-12-03T07:13:02.456Z,22.23
2022-12-03T07:15:29.398Z,21.02
2022-12-03T07:17:56.313Z,22.23
2022-12-03T07:20:23.228Z,20.83
2022-12-03T07:22:51.600Z,23.08
2022-12-03T07:25:23.162Z,28.80
2022-12-03T07:27:50.925Z,41.95
2022-12-03T07:30:18.265Z,65.43
2022-12-03T07:32:45.289Z,34.38
2022-12-03T07:35:12.292Z,22.80
2022-12-03T07:37:39.287Z,22.67
2022-12-03T07:40:09.873Z,64.63
2022-12-03T07:42:36.944Z,27.38
2022-12-03T07:45:04.578Z,22.23
2022-12-03T07:47:31.662Z,50.30
2022-12-03T07:49:58.609Z,27.45
2022-12-03T07:52:25.568Z,29.85
2022-12-03T07:54:52.714Z,19.42
2022-12-03T07:57:21.237Z,23.90
2022-12-03T07:59:48.211Z,21.20
2022-12-03T08:02:20.968Z,20.50
2022-12-03T08:04:48.733Z,21.77
2022-12-03T08:07:15.694Z,18.20
2022-12-03T08:09:43.186Z,20.10
2022-12-03T08:12:17.275Z,20.88
2022-12-03T08:14:45.732Z,18.27
2022-12-03T08:17:13.238Z,18.80
2022-12-03T08:19:43.327Z,20.52
2022-12-03T08:22:12.945Z,21.98
2022-12-03T08:24:40.024Z,21.15
2022-12-03T08:27:16.952Z,18.70
2022-12-03T08:29:45.661Z,19.95
2022-12-03T08:32:13.027Z,19.58
2022-12-03T08:34:42.228Z,19.35
2022-12-03T08:37:15.922Z,20.55
2022-12-03T08:39:45.737Z,23.02
2022-12-03T08:42:34.883Z,20.23
2022-12-03T08:45:41.391Z,19.17
2022-12-03T08:50:47.177Z,20.50
2022-12-03T08:53:37.610Z,21.02
2022-12-03T08:56:13.726Z,22.17
2022-12-03T08:58:42.254Z,19.23
2022-12-03T09:01:29.813Z,21.63
2022-12-03T09:04:02.349Z,20.35
2022-12-03T09:06:29.428Z,20.60
2022-12-03T09:08:56.346Z,23.50
2022-12-03T09:11:23.309Z,21.48
2022-12-03T09:13:50.280Z,20.45
2022-12-03T09:16:17.397Z,19.27
2022-12-03T09:18:45.788Z,19.50
2022-12-03T09:21:12.751Z,19.38
2022-12-03T09:23:39.718Z,19.77
2022-12-03T09:26:06.698Z,19.30
2022-12-03T09:28:33.631Z,18.83
2022-12-03T09:31:00.591Z,18.08
2022-12-03T09:33:27.747Z,18.80
2022-12-03T09:35:56.044Z,20.77
2022-12-03T09:38:24.938Z,29.45
2022-12-03T09:40:52.080Z,17.50
2022-12-03T09:43:19.880Z,19.50
2022-12-03T09:45:47.710Z,26.42
2022-12-03T09:48:16.493Z,19.65
2022-12-03T09:50:43.782Z,20.90
2022-12-03T09:53:20.315Z,17.65
2022-12-03T09:55:48.016Z,17.95
2022-12-03T09:58:16.269Z,20.70
2022-12-03T10:00:46.672Z,17.40
2022-12-03T10:03:15.769Z,15.52
2022-12-03T10:05:47.929Z,17.55
2022-12-03T10:08:21.365Z,16.17
2022-12-03T10:10:50.657Z,17.40
2022-12-03T10:13:25.782Z,16.50
2022-12-03T10:15:54.870Z,17.38
2022-12-03T10:18:24.199Z,16.13
2022-12-03T10:20:52.264Z,17.00
2022-12-03T10:23:22.911Z,17.77
2022-12-03T10:25:52.507Z,15.43
2022-12-03T10:28:31.937Z,20.95
2022-12-03T10:31:00.829Z,25.98
2022-12-03T10:33:33.129Z,20.08
2022-12-03T10:36:23.878Z,15.57
2022-12-03T10:42:14.897Z,16.15
2022-12-03T10:44:41.949Z,15.38
2022-12-03T10:47:11.692Z,20.02
2022-12-03T10:49:39.485Z,20.08
2022-12-03T10:52:21.214Z,18.88
2022-12-03T10:54:51.446Z,17.20
2022-12-03T10:57:20.216Z,19.15
2022-12-03T10:59:47.254Z,17.20
2022-12-03T11:02:20.043Z,16.85
2022-12-03T11:04:47.276Z,17.80
2022-12-03T11:07:16.767Z,27.75
2022-12-03T11:09:45.412Z,37.15
2022-12-03T11:12:18.916Z,17.52
2022-12-03T11:15:17.498Z,14.98
2022-12-03T11:17:47.250Z,16.05
2022-12-03T11:20:52.317Z,15.07
2022-12-03T11:24:02.563Z,14.75
2022-12-03T11:27:15.112Z,14.65
2022-12-03T11:29:53.902Z,17.00
2022-12-03T11:33:06.155Z,17.20
2022-12-03T11:36:05.961Z,20.15
2022-12-03T11:38:53.859Z,18.05
2022-12-03T11:41:24.054Z,18.52
2022-12-03T11:43:58.981Z,17.15
2022-12-03T11:46:29.492Z,20.13
2022-12-03T11:48:58.737Z,14.63
2022-12-03T11:51:27.478Z,15.40
2022-12-03T11:53:58.109Z,16.30
2022-12-03T11:56:27.702Z,20.67
2022-12-03T11:58:59.740Z,17.38
2022-12-03T12:01:38.311Z,17.58
2022-12-03T12:04:06.913Z,17.63
2022-12-03T12:06:42.235Z,17.17
2022-12-03T12:09:11.026Z,19.52
2022-12-03T12:11:41.446Z,18.55
2022-12-03T12:14:09.846Z,18.83
2022-12-03T12:16:39.790Z,16.77
2022-12-03T12:19:32.787Z,19.05
2022-12-03T12:22:19.337Z,18.33
2022-12-03T12:24:51.628Z,20.75
2022-12-03T12:27:21.777Z,18.55
2022-12-03T12:29:54.506Z,21.33
2022-12-03T12:32:25.184Z,21.88
2022-12-03T12:34:57.057Z,23.50
2022-12-03T12:37:31.597Z,21.42
2022-12-03T12:40:02.008Z,15.30
2022-12-03T12:42:31.927Z,18.73
2022-12-03T12:45:05.281Z,23.50
2022-12-03T12:47:34.060Z,22.13
2022-12-03T12:50:01.898Z,19.70
2022-12-03T12:52:28.958Z,20.00
2022-12-03T12:54:59.041Z,25.90
2022-12-03T12:57:30.675Z,20.90
2022-12-03T12:59:57.859Z,23.55
2022-12-03T13:02:44.462Z,17.60
2022-12-03T13:05:13.125Z,18.88
2022-12-03T13:07:42.138Z,19.42
2022-12-03T13:10:37.272Z,18.90
2022-12-03T13:13:19.977Z,17.73
2022-12-03T13:15:59.547Z,19.40
2022-12-03T13:18:31.253Z,19.85
2022-12-03T13:20:58.428Z,16.88
2022-12-03T13:23:31.396Z,18.88
2022-12-03T13:26:17.303Z,19.50
2022-12-03T13:28:55.761Z,17.85
2022-12-03T13:31:27.194Z,20.85
2022-12-03T13:33:59.663Z,18.77
2022-12-03T13:36:36.809Z,19.50
2022-12-03T13:39:13.220Z,20.25
2022-12-03T13:41:59.998Z,20.77
2022-12-03T13:44:30.270Z,20.88
2022-12-03T13:46:57.247Z,20.08
2022-12-03T13:49:24.569Z,18.38
2022-12-03T13:51:51.698Z,17.92
2022-12-03T13:54:23.848Z,23.92
2022-12-03T13:56:50.925Z,24.70
2022-12-03T13:59:22.958Z,19.02
2022-12-03T14:01:54.418Z,18.80
2022-12-03T14:04:21.425Z,17.40
2022-12-03T14:06:48.462Z,20.02
2022-12-03T14:09:15.463Z,22.60
2022-12-03T14:12:00.668Z,22.27
2022-12-03T14:14:27.645Z,20.90
2022-12-03T14:16:59.900Z,18.10
2022-12-03T14:19:27.393Z,19.83
2022-12-03T14:21:54.407Z,20.17
2022-12-03T14:24:21.390Z,19.98
2022-12-03T14:26:48.485Z,19.10
2022-12-03T14:29:15.486Z,22.08
2022-12-03T14:31:42.527Z,21.90
2022-12-03T14:34:10.994Z,17.55
2022-12-03T14:36:37.903Z,18.25
2022-12-03T14:39:04.836Z,16.63
2022-12-03T14:41:50.379Z,16.00
2022-12-03T14:44:17.582Z,16.90
2022-12-03T14:46:44.547Z,17.05
2022-12-03T14:49:12.942Z,18.60
2022-12-03T14:51:40.009Z,18.60
2022-12-03T14:54:06.939Z,22.55
2022-12-03T14:56:33.914Z,21.40
2022-12-03T14:59:00.894Z,18.80
2022-12-03T15:01:28.041Z,18.30
2022-12-03T15:03:55.079Z,19.42
2022-12-03T15:06:23.389Z,17.73
2022-12-03T15:08:50.327Z,17.10
2022-12-03T15:11:17.300Z,18.02
2022-12-03T15:13:44.375Z,17.98
2022-12-03T15:16:11.425Z,18.48
2022-12-03T15:18:38.452Z,19.90
2022-12-03T15:21:05.743Z,17.55
2022-12-03T15:23:35.175Z,19.98
2022-12-03T15:26:02.169Z,17.95
2022-12-03T15:28:29.197Z,18.05
2022-12-03T15:30:56.387Z,19.73
2022-12-03T15:33:23.453Z,18.73
2022-12-03T15:35:50.425Z,18.63
2022-12-03T15:38:17.861Z,16.70
2022-12-03T15:40:46.505Z,15.88
2022-12-03T15:43:13.489Z,16.08
2022-12-03T15:45:40.597Z,15.98
2022-12-03T15:48:07.690Z,16.77
2022-12-03T15:50:39.695Z,14.75
2022-12-03T15:53:07.209Z,15.88
2022-12-03T15:55:34.262Z,14.15
2022-12-03T15:58:02.736Z,16.00
2022-12-03T16:00:29.713Z,17.65
2022-12-03T16:02:56.729Z,15.73
2022-12-03T16:05:23.702Z,15.43
2022-12-03T16:07:50.788Z,17.10
2022-12-03T16:10:21.463Z,48.38
2022-12-03T16:12:49.225Z,44.45
2022-12-03T16:15:20.920Z,48.92
2022-12-03T16:17:51.301Z,50.85
2022-12-03T16:20:18.330Z,28.40
2022-12-03T16:22:45.383Z,19.10
2022-12-03T16:25:12.361Z,15.15
2022-12-03T16:27:39.418Z,15.13
2022-12-03T16:30:07.701Z,15.60
2022-12-03T16:32:36.105Z,17.13
2022-12-03T16:35:03.246Z,15.18
2022-12-03T16:37:30.414Z,15.63
2022-12-03T16:39:57.499Z,15.90
2022-12-03T16:42:24.791Z,16.33
2022-12-03T16:45:12.350Z,15.35
2022-12-03T16:47:40.825Z,17.00
2022-12-03T16:50:12.998Z,18.13
2022-12-03T16:52:46.624Z,18.60
2022-12-03T16:55:13.592Z,14.63
2022-12-03T16:57:40.671Z,16.92
2022-12-03T17:00:08.694Z,17.13
2022-12-03T17:02:35.883Z,19.55
2022-12-03T17:05:04.561Z,19.30
2022-12-03T17:07:31.736Z,19.52
2022-12-03T17:09:58.732Z,17.42
2022-12-03T17:12:37.485Z,18.23
2022-12-03T17:15:13.437Z,21.02
2022-12-03T17:17:40.358Z,18.52
2022-12-03T17:20:09.373Z,21.08
2022-12-03T17:22:36.359Z,18.77
2022-12-03T17:25:03.483Z,20.23
2022-12-03T17:27:30.521Z,20.33
2022-12-03T17:29:57.477Z,19.42
2022-12-03T17:32:24.432Z,19.50
2022-12-03T17:34:51.471Z,18.88
2022-12-03T17:37:19.851Z,16.50
2022-12-03T17:39:46.878Z,19.77
2022-12-03T17:42:14.059Z,22.67
2022-12-03T17:44:41.067Z,20.17
2022-12-03T17:47:08.388Z,26.23
2022-12-03T17:49:35.316Z,28.17
2022-12-03T17:52:02.290Z,22.88
2022-12-03T17:54:55.099Z,31.25
2022-12-03T17:57:17.928Z,45.47
2022-12-03T17:59:44.913Z,74.40
2022-12-03T18:02:12.495Z,54.08
2022-12-03T18:04:39.531Z,38.13
2022-12-03T18:07:06.499Z,62.58
2022-12-03T18:09:34.952Z,88.00
2022-12-03T18:12:02.344Z,45.83
2022-12-03T18:14:29.561Z,33.35
2022-12-03T18:16:56.737Z,37.70
2022-12-03T18:19:25.979Z,25.10
2022-12-03T18:21:54.032Z,30.15
2022-12-03T18:24:22.015Z,25.08
2022-12-03T18:26:50.504Z,24.52
2022-12-03T18:29:17.505Z,27.02
2022-12-03T18:31:44.693Z,29.15
2022-12-03T18:34:12.057Z,25.30
2022-12-03T18:36:39.865Z,23.92
2022-12-03T18:39:09.333Z,20.83
2022-12-03T18:41:36.797Z,18.70
2022-12-03T18:44:09.533Z,20.17
2022-12-03T18:46:52.845Z,17.33
2022-12-03T18:49:20.445Z,18.30
2022-12-03T18:51:48.443Z,16.42
2022-12-03T18:54:16.104Z,15.80
2022-12-03T18:56:43.178Z,16.52
2022-12-03T18:59:12.297Z,17.33
2022-12-03T19:01:39.682Z,15.63
2022-12-03T19:04:06.706Z,16.35
2022-12-03T19:06:33.690Z,15.85
2022-12-03T19:09:00.846Z,16.17
2022-12-03T19:11:28.095Z,16.85
2022-12-03T19:13:57.204Z,16.80
2022-12-03T19:16:26.054Z,17.77
2022-12-03T19:18:53.975Z,18.73
2022-12-03T19:21:21.709Z,18.05
2022-12-03T19:24:21.994Z,17.85
2022-12-03T19:26:36.117Z,18.17
2022-12-03T19:29:03.562Z,19.05
2022-12-03T19:31:33.569Z,18.65
2022-12-03T19:34:00.708Z,20.73
2022-12-03T19:36:30.096Z,20.90
2022-12-03T19:38:59.112Z,21.05
2022-12-03T19:41:32.592Z,21.90
2022-12-03T19:43:59.998Z,20.75
2022-12-03T19:46:30.275Z,22.38
2022-12-03T19:48:58.752Z,22.10
2022-12-03T19:51:34.623Z,22.33
2022-12-03T19:54:02.309Z,21.40
2022-12-03T19:56:30.598Z,23.88
2022-12-03T19:58:57.934Z,27.85
2022-12-03T20:01:27.037Z,31.70
2022-12-03T20:03:55.892Z,41.55
2022-12-03T20:06:25.945Z,22.58
2022-12-03T20:08:56.642Z,35.88
2022-12-03T20:11:25.651Z,27.15
2022-12-03T20:13:54.538Z,21.75
2022-12-03T20:16:22.656Z,21.02
2022-12-03T20:18:51.796Z,19.20
2022-12-03T20:21:19.891Z,20.77
2022-12-03T20:23:48.250Z,19.25
2022-12-03T20:26:16.918Z,19.42
2022-12-03T20:28:44.381Z,18.85
2022-12-03T20:31:13.651Z,19.90
2022-12-03T20:33:42.595Z,18.38
2022-12-03T20:36:10.641Z,17.55
2022-12-03T20:38:37.893Z,17.45
2022-12-03T20:41:08.456Z,18.45
2022-12-03T20:43:35.981Z,18.83
2022-12-03T20:46:06.955Z,19.05
2022-12-03T20:48:34.017Z,18.38
2022-12-03T20:51:03.655Z,17.20
2022-12-03T20:53:30.625Z,16.83
2022-12-03T20:55:58.944Z,17.02
2022-12-03T20:58:30.432Z,17.30
2022-12-03T21:01:12.548Z,17.13
2022-12-03T21:03:43.355Z,17.90
2022-12-03T21:06:12.140Z,17.40
2022-12-03T21:08:41.889Z,19.15
2022-12-03T21:11:10.025Z,17.83
2022-12-03T21:13:41.299Z,17.90
2022-12-03T21:16:11.213Z,16.95
2022-12-03T21:18:38.800Z,17.52
2022-12-03T21:21:06.887Z,16.70
2022-12-03T21:23:34.901Z,16.15
2022-12-03T21:26:03.789Z,16.55
2022-12-03T21:28:31.194Z,17.27
2022-12-03T21:31:02.394Z,18.02
2022-12-03T21:33:30.645Z,17.27
2022-12-03T21:35:57.951Z,17.83
2022-12-03T21:38:25.762Z,17.10
2022-12-03T21:40:53.314Z,16.45
2022-12-03T21:43:20.370Z,16.80
2022-12-03T21:45:48.530Z,15.75
2022-12-03T21:48:17.714Z,15.45
2022-12-03T21:50:45.952Z,15.23
2022-12-03T21:53:13.100Z,16.50
2022-12-03T21:55:40.983Z,17.58
2022-12-03T21:58:08.324Z,15.70
2022-12-03T22:00:35.353Z,16.45
2022-12-03T22:03:02.383Z,16.70
2022-12-03T22:05:30.868Z,17.13
2022-12-03T22:07:57.880Z,16.45
2022-12-03T22:10:24.901Z,16.20
2022-12-03T22:12:51.944Z,15.90
2022-12-03T22:15:19.675Z,16.05
2022-12-03T22:17:47.493Z,15.90
2022-12-03T22:20:15.167Z,14.07
2022-12-03T22:22:43.525Z,15.55
2022-12-03T22:25:10.594Z,14.57
2022-12-03T22:27:37.616Z,15.13
2022-12-03T22:30:05.982Z,14.50
2022-12-03T22:32:33.421Z,15.50
2022-12-03T22:35:00.391Z,14.18
2022-12-03T22:37:27.353Z,14.13
2022-12-03T22:39:55.959Z,14.60
2022-12-03T22:42:23.066Z,14.75
2022-12-03T22:44:50.048Z,14.75
2022-12-03T22:47:17.081Z,15.65
2022-12-03T22:49:44.077Z,14.45
2022-12-03T22:52:10.990Z,14.40
2022-12-03T22:54:37.906Z,15.10
2022-12-03T22:57:06.232Z,14.30
2022-12-03T22:59:33.272Z,13.15
2022-12-03T23:02:00.224Z,14.00
2022-12-03T23:04:27.163Z,14.43
2022-12-03T23:06:54.150Z,14.18
2022-12-03T23:09:21.298Z,13.60
2022-12-03T23:11:48.249Z,13.88
2022-12-03T23:14:16.539Z,14.20
2022-12-03T23:16:43.805Z,15.82
2022-12-03T23:19:10.849Z,13.93
2022-12-03T23:21:37.809Z,13.75
2022-12-03T23:24:06.002Z,14.65
2022-12-03T23:26:36.200Z,14.65
2022-12-03T23:29:04.115Z,14.30
2022-12-03T23:31:33.751Z,12.93
2022-12-03T23:34:01.166Z,13.73
2022-12-03T23:36:31.751Z,12.95
2022-12-03T23:38:58.728Z,14.40
2022-12-03T23:41:26.060Z,13.45
2022-12-03T23:43:53.253Z,14.65
2022-12-03T23:46:22.296Z,16.85
2022-12-03T23:48:51.629Z,16.90
2022-12-03T23:51:21.665Z,16.17
2022-12-03T23:53:48.649Z,15.43
2022-12-03T23:56:17.986Z,13.45
2022-12-03T23:58:45.515Z,12.75
